createdAt,value
2023-02-17T00:00:29.598Z,21.13
2023-02-17T00:02:58.053Z,23.57
2023-02-17T00:05:26.434Z,24.23
2023-02-17T00:07:54.700Z,22.60
2023-02-17T00:10:22.516Z,22.50
2023-02-17T00:12:50.615Z,24.27
2023-02-17T00:15:18.451Z,23.80
2023-02-17T00:17:47.583Z,20.90
2023-02-17T00:20:15.657Z,24.03
2023-02-17T00:22:43.460Z,22.23
2023-02-17T00:25:11.276Z,22.83
2023-02-17T00:27:39.311Z,20.73
2023-02-17T00:30:09.182Z,20.73
2023-02-17T00:32:37.809Z,20.70
2023-02-17T00:35:08.422Z,25.43
2023-02-17T00:37:36.497Z,20.83
2023-02-17T00:40:04.735Z,23.10
2023-02-17T00:42:32.547Z,21.70
2023-02-17T00:45:00.401Z,21.97
2023-02-17T00:47:28.351Z,16.50
2023-02-17T00:49:56.174Z,24.90
2023-02-17T00:52:25.467Z,21.77
2023-02-17T00:54:53.740Z,15.87
2023-02-17T00:57:22.181Z,17.00
2023-02-17T00:59:49.995Z,16.60
2023-02-17T01:02:20.405Z,15.63
2023-02-17T01:04:48.393Z,14.87
2023-02-17T01:07:16.144Z,16.20
2023-02-17T01:09:45.532Z,14.90
2023-02-17T01:12:13.287Z,16.83
2023-02-17T01:14:41.243Z,15.57
2023-02-17T01:17:09.211Z,14.77
2023-02-17T01:19:37.024Z,15.53
2023-02-17T01:22:04.969Z,13.67
2023-02-17T01:24:32.912Z,14.67
2023-02-17T01:27:02.011Z,14.20
2023-02-17T01:29:29.757Z,17.13
2023-02-17T01:31:57.614Z,14.27
2023-02-17T01:34:25.372Z,16.27
2023-02-17T01:36:53.086Z,18.77
2023-02-17T01:39:20.823Z,19.13
2023-02-17T01:41:48.690Z,17.43
2023-02-17T01:44:19.518Z,14.57
2023-02-17T01:46:49.186Z,19.50
2023-02-17T01:49:23.635Z,16.77
2023-02-17T01:51:55.120Z,15.80
2023-02-17T01:54:26.661Z,18.60
2023-02-17T01:56:55.810Z,16.33
2023-02-17T01:59:24.923Z,15.63
2023-02-17T02:01:56.751Z,19.33
2023-02-17T02:04:27.493Z,15.33
2023-02-17T02:06:55.678Z,15.60
2023-02-17T02:09:26.200Z,17.23
2023-02-17T02:11:53.979Z,19.17
2023-02-17T02:14:23.908Z,19.40
2023-02-17T02:16:56.057Z,14.90
2023-02-17T02:19:58.994Z,17.13
2023-02-17T02:22:54.918Z,18.90
2023-02-17T02:25:45.980Z,18.47
2023-02-17T02:28:22.615Z,17.60
2023-02-17T02:31:19.964Z,17.17
2023-02-17T02:33:51.901Z,17.03
2023-02-17T02:36:22.755Z,16.60
2023-02-17T02:38:54.764Z,16.03
2023-02-17T02:41:25.334Z,15.40
2023-02-17T02:43:53.298Z,18.60
2023-02-17T02:46:21.107Z,16.67
2023-02-17T02:48:51.554Z,17.67
2023-02-17T02:51:30.423Z,17.93
2023-02-17T02:54:22.370Z,13.57
2023-02-17T02:57:01.889Z,20.23
2023-02-17T02:59:39.380Z,0.77
2023-02-17T03:02:12.613Z,17.97
2023-02-17T03:04:46.060Z,19.40
2023-02-17T03:07:21.355Z,16.77
2023-02-17T03:09:49.645Z,17.60
2023-02-17T03:12:17.659Z,16.20
2023-02-17T03:14:46.339Z,17.33
2023-02-17T03:17:14.379Z,18.00
2023-02-17T03:19:45.573Z,14.87
2023-02-17T03:22:18.479Z,16.07
2023-02-17T03:24:46.335Z,15.07
2023-02-17T03:27:14.156Z,19.43
2023-02-17T03:29:42.309Z,20.47
2023-02-17T03:32:10.340Z,19.10
2023-02-17T03:34:38.196Z,16.83
2023-02-17T03:37:07.456Z,20.33
2023-02-17T03:39:35.277Z,20.40
2023-02-17T03:42:03.324Z,0.60
2023-02-17T03:44:31.109Z,0.70
2023-02-17T03:46:58.913Z,17.30
2023-02-17T03:49:26.764Z,19.03
2023-02-17T03:51:54.591Z,17.87
2023-02-17T03:54:23.770Z,16.83
2023-02-17T03:56:51.575Z,15.83
2023-02-17T03:59:19.451Z,18.60
2023-02-17T04:01:47.214Z,19.90
2023-02-17T04:04:15.335Z,16.57
2023-02-17T04:06:43.120Z,18.37
2023-02-17T04:09:11.138Z,19.47
2023-02-17T04:11:40.273Z,15.73
2023-02-17T04:14:08.295Z,14.60
2023-02-17T04:16:39.057Z,15.33
2023-02-17T04:19:07.339Z,15.43
2023-02-17T04:21:35.614Z,18.20
2023-02-17T04:24:03.788Z,15.90
2023-02-17T04:26:31.881Z,16.27
2023-02-17T04:29:01.251Z,15.83
2023-02-17T04:31:29.268Z,15.50
2023-02-17T04:33:57.166Z,15.97
2023-02-17T04:36:24.951Z,14.60
2023-02-17T04:38:52.740Z,17.60
2023-02-17T04:41:20.520Z,18.73
2023-02-17T04:43:48.547Z,15.40
2023-02-17T04:46:17.906Z,15.17
2023-02-17T04:48:45.755Z,20.17
2023-02-17T04:51:13.532Z,15.53
2023-02-17T04:53:41.565Z,17.97
2023-02-17T04:56:09.387Z,16.43
2023-02-17T04:58:37.237Z,15.43
2023-02-17T05:01:05.472Z,15.47
2023-02-17T05:03:34.654Z,17.83
2023-02-17T05:06:02.431Z,16.50
2023-02-17T05:08:30.297Z,16.17
2023-02-17T05:10:58.069Z,16.47
2023-02-17T05:13:27.529Z,19.13
2023-02-17T05:15:55.342Z,16.83
2023-02-17T05:18:23.116Z,17.17
2023-02-17T05:20:52.850Z,20.83
2023-02-17T05:23:20.701Z,17.60
2023-02-17T05:25:48.494Z,5.20
2023-02-17T05:28:16.276Z,8.90
2023-02-17T05:30:44.017Z,14.47
2023-02-17T05:33:11.768Z,16.23
2023-02-17T05:35:39.970Z,16.27
2023-02-17T05:38:09.319Z,15.20
2023-02-17T05:40:37.191Z,1.40
2023-02-17T05:43:05.049Z,16.47
2023-02-17T05:45:32.822Z,11.53
2023-02-17T05:48:00.645Z,13.10
2023-02-17T05:50:28.475Z,17.37
2023-02-17T05:52:56.250Z,7.23
2023-02-17T05:55:25.393Z,9.93
2023-02-17T05:57:53.170Z,10.93
2023-02-17T06:00:21.178Z,11.30
2023-02-17T06:02:49.077Z,10.83
2023-02-17T06:05:17.307Z,14.53
2023-02-17T06:07:45.137Z,11.73
2023-02-17T06:10:13.094Z,11.27
2023-02-17T06:12:42.253Z,14.37
2023-02-17T06:15:10.524Z,13.60
2023-02-17T06:17:38.384Z,17.43
2023-02-17T06:20:07.482Z,14.67
2023-02-17T06:22:35.276Z,13.13
2023-02-17T06:25:03.122Z,13.53
2023-02-17T06:27:30.873Z,14.30
2023-02-17T06:30:00.134Z,13.10
2023-02-17T06:32:27.906Z,10.47
2023-02-17T06:34:55.699Z,11.07
2023-02-17T06:37:23.837Z,20.83
2023-02-17T06:39:51.642Z,12.93
2023-02-17T06:42:19.420Z,11.47
2023-02-17T06:44:48.203Z,8.17
2023-02-17T06:47:17.362Z,8.77
2023-02-17T06:49:45.142Z,10.57
2023-02-17T06:52:13.015Z,12.60
2023-02-17T06:54:40.823Z,9.77
2023-02-17T06:57:08.589Z,9.47
2023-02-17T06:59:36.516Z,9.03
2023-02-17T07:02:04.360Z,11.93
2023-02-17T07:04:33.834Z,8.07
2023-02-17T07:07:01.585Z,10.67
2023-02-17T07:09:29.368Z,9.50
2023-02-17T07:11:57.544Z,9.23
2023-02-17T07:14:25.723Z,9.40
2023-02-17T07:16:53.961Z,8.57
2023-02-17T07:19:22.128Z,9.23
2023-02-17T07:21:51.308Z,9.77
2023-02-17T07:24:19.484Z,6.87
2023-02-17T07:26:47.339Z,15.57
2023-02-17T07:29:15.122Z,15.23
2023-02-17T07:31:43.100Z,12.87
2023-02-17T07:34:10.892Z,13.10
2023-02-17T07:36:38.667Z,7.50
2023-02-17T07:39:08.153Z,13.53
2023-02-17T07:41:35.923Z,13.83
2023-02-17T07:44:03.703Z,16.03
2023-02-17T07:46:31.572Z,12.40
2023-02-17T07:48:59.441Z,20.17
2023-02-17T07:51:28.346Z,9.83
2023-02-17T07:53:56.281Z,15.93
2023-02-17T07:56:25.909Z,9.47
2023-02-17T07:58:53.744Z,9.23
2023-02-17T08:01:23.226Z,7.70
2023-02-17T08:03:52.060Z,9.37
2023-02-17T08:06:21.217Z,8.57
2023-02-17T08:09:07.214Z,8.27
2023-02-17T08:11:53.987Z,9.10
2023-02-17T08:14:22.354Z,7.90
2023-02-17T08:16:50.216Z,9.43
2023-02-17T08:19:18.288Z,9.37
2023-02-17T08:21:46.298Z,12.33
2023-02-17T08:24:14.253Z,11.20
2023-02-17T08:26:43.572Z,9.33
2023-02-17T08:29:11.376Z,8.97
2023-02-17T08:31:39.701Z,9.10
2023-02-17T08:34:09.808Z,9.47
2023-02-17T08:36:38.481Z,10.00
2023-02-17T08:39:07.024Z,10.63
2023-02-17T08:41:36.988Z,11.00
2023-02-17T08:44:09.703Z,8.17
2023-02-17T08:46:38.197Z,8.30
2023-02-17T08:49:06.996Z,8.73
2023-02-17T08:51:35.757Z,11.17
2023-02-17T08:54:04.896Z,8.47
2023-02-17T08:56:32.814Z,9.37
2023-02-17T08:59:01.121Z,9.07
2023-02-17T09:01:30.616Z,8.57
2023-02-17T09:03:59.989Z,9.07
2023-02-17T09:06:33.751Z,7.40
2023-02-17T09:09:01.557Z,7.60
2023-02-17T09:11:29.525Z,8.07
2023-02-17T09:13:57.313Z,8.20
2023-02-17T09:16:25.396Z,7.40
2023-02-17T09:18:54.825Z,8.50
2023-02-17T09:21:23.161Z,7.67
2023-02-17T09:23:51.157Z,7.00
2023-02-17T09:26:19.576Z,8.77
2023-02-17T09:28:48.198Z,7.20
2023-02-17T09:31:18.731Z,8.03
2023-02-17T09:33:47.813Z,6.23
2023-02-17T09:36:18.577Z,5.77
2023-02-17T09:38:46.633Z,7.00
2023-02-17T09:41:19.876Z,6.20
2023-02-17T09:43:47.912Z,8.80
2023-02-17T09:46:19.173Z,6.93
2023-02-17T09:48:49.578Z,6.73
2023-02-17T09:51:23.648Z,5.90
2023-02-17T09:53:54.948Z,7.07
2023-02-17T09:56:26.398Z,7.03
2023-02-17T09:58:55.289Z,6.10
2023-02-17T10:01:27.466Z,7.00
2023-02-17T10:03:59.109Z,5.10
2023-02-17T10:06:30.847Z,8.33
2023-02-17T10:09:02.390Z,4.73
2023-02-17T10:11:33.792Z,8.80
2023-02-17T10:14:04.696Z,5.63
2023-02-17T10:16:37.281Z,5.60
2023-02-17T10:19:11.799Z,6.13
2023-02-17T10:21:44.231Z,4.40
2023-02-17T10:24:12.016Z,5.57
2023-02-17T10:26:50.229Z,6.03
2023-02-17T10:29:23.683Z,4.33
2023-02-17T10:32:02.689Z,6.53
2023-02-17T10:34:36.222Z,5.33
2023-02-17T10:37:06.716Z,4.00
2023-02-17T10:39:45.491Z,4.93
2023-02-17T10:42:20.482Z,5.73
2023-02-17T10:44:50.035Z,5.20
2023-02-17T10:47:18.108Z,5.73
2023-02-17T10:49:49.898Z,4.03
2023-02-17T10:52:20.377Z,4.37
2023-02-17T10:54:52.105Z,4.67
2023-02-17T10:57:21.350Z,4.17
2023-02-17T10:59:50.587Z,4.07
2023-02-17T11:02:20.753Z,5.40
2023-02-17T11:04:50.168Z,3.87
2023-02-17T11:07:21.222Z,4.93
2023-02-17T11:09:54.614Z,5.97
2023-02-17T11:12:24.432Z,7.13
2023-02-17T11:14:54.911Z,5.03
2023-02-17T11:17:26.763Z,4.70
2023-02-17T11:20:04.000Z,3.83
2023-02-17T11:22:37.188Z,4.10
2023-02-17T11:25:08.232Z,5.27
2023-02-17T11:27:36.165Z,3.80
2023-02-17T11:30:15.291Z,2.97
2023-02-17T11:32:43.098Z,4.07
2023-02-17T11:35:22.411Z,3.40
2023-02-17T11:37:51.999Z,3.97
2023-02-17T11:40:27.116Z,2.97
2023-02-17T11:42:59.430Z,3.13
2023-02-17T11:45:29.389Z,4.93
2023-02-17T11:48:09.431Z,3.53
2023-02-17T11:50:42.570Z,2.63
2023-02-17T11:53:22.790Z,2.33
2023-02-17T11:55:59.443Z,2.73
2023-02-17T11:58:35.281Z,2.53
2023-02-17T12:01:10.335Z,3.30
2023-02-17T12:03:47.647Z,3.07
2023-02-17T12:06:19.337Z,2.50
2023-02-17T12:08:59.317Z,2.43
2023-02-17T12:11:31.855Z,2.57
2023-02-17T12:14:13.398Z,1.90
2023-02-17T12:16:48.388Z,2.87
2023-02-17T12:19:29.804Z,3.60
2023-02-17T12:22:04.806Z,2.20
2023-02-17T12:24:42.601Z,3.30
2023-02-17T12:27:29.529Z,2.23
2023-02-17T12:30:05.945Z,2.10
2023-02-17T12:32:44.762Z,2.27
2023-02-17T12:35:17.345Z,2.10
2023-02-17T12:37:50.629Z,1.70
2023-02-17T12:40:26.967Z,2.63
2023-02-17T12:42:57.965Z,2.17
2023-02-17T12:45:31.516Z,2.17
2023-02-17T12:48:03.327Z,2.40
2023-02-17T12:50:34.683Z,1.63
2023-02-17T12:53:06.406Z,2.23
2023-02-17T12:55:38.821Z,1.70
2023-02-17T12:58:09.345Z,2.20
2023-02-17T13:00:40.691Z,1.77
2023-02-17T13:03:09.022Z,1.77
2023-02-17T13:05:40.257Z,2.27
2023-02-17T13:08:09.461Z,2.07
2023-02-17T13:10:40.174Z,1.90
2023-02-17T13:13:11.001Z,1.80
2023-02-17T13:15:42.311Z,2.10
2023-02-17T13:18:14.194Z,8.80
2023-02-17T13:21:00.667Z,2.37
2023-02-17T13:23:38.113Z,1.60
2023-02-17T13:26:31.832Z,1.97
2023-02-17T13:29:33.451Z,1.50
2023-02-17T13:32:03.496Z,1.80
2023-02-17T13:34:35.002Z,1.70
2023-02-17T13:37:15.183Z,3.63
2023-02-17T13:39:43.111Z,1.20
2023-02-17T13:42:44.201Z,1.60
2023-02-17T13:45:16.040Z,1.73
2023-02-17T13:47:44.366Z,1.70
2023-02-17T13:50:29.208Z,1.50
2023-02-17T13:52:57.512Z,2.63
2023-02-17T13:55:25.483Z,14.27
2023-02-17T13:57:55.697Z,3.40
2023-02-17T14:00:25.906Z,3.37
2023-02-17T14:02:55.580Z,1.60
2023-02-17T14:05:28.048Z,3.37
2023-02-17T14:07:59.681Z,8.20
2023-02-17T14:10:28.388Z,9.43
2023-02-17T14:12:59.221Z,2.33
2023-02-17T14:15:29.245Z,2.50
2023-02-17T14:17:57.542Z,2.00
2023-02-17T14:20:31.572Z,1.50
2023-02-17T14:23:05.213Z,1.80
2023-02-17T14:25:35.551Z,1.57
2023-02-17T14:28:05.088Z,1.70
2023-02-17T14:30:34.827Z,1.97
2023-02-17T14:33:07.004Z,3.97
2023-02-17T14:35:35.710Z,1.63
2023-02-17T14:38:11.567Z,3.27
2023-02-17T14:40:40.296Z,1.80
2023-02-17T14:43:09.526Z,2.00
2023-02-17T14:45:37.311Z,3.60
2023-02-17T14:48:05.402Z,4.63
2023-02-17T14:50:33.343Z,1.60
2023-02-17T14:53:01.169Z,2.23
2023-02-17T14:55:33.717Z,2.00
2023-02-17T14:58:01.634Z,3.27
2023-02-17T15:00:30.878Z,2.70
2023-02-17T15:02:58.759Z,2.63
2023-02-17T15:05:26.578Z,1.27
2023-02-17T15:07:54.449Z,1.40
2023-02-17T15:10:26.680Z,1.60
2023-02-17T15:12:54.962Z,1.60
2023-02-17T15:15:23.082Z,1.60
2023-02-17T15:17:52.269Z,3.87
2023-02-17T15:20:20.129Z,1.57
2023-02-17T15:22:52.668Z,1.67
2023-02-17T15:25:23.168Z,1.33
2023-02-17T15:27:51.309Z,2.27
2023-02-17T15:30:20.402Z,2.30
2023-02-17T15:32:48.688Z,2.13
2023-02-17T15:35:20.687Z,1.70
2023-02-17T15:37:48.488Z,1.80
2023-02-17T15:40:18.500Z,1.97
2023-02-17T15:42:47.838Z,1.87
2023-02-17T15:45:18.357Z,3.00
2023-02-17T15:47:46.369Z,2.70
2023-02-17T15:50:19.194Z,1.50
2023-02-17T15:52:50.065Z,1.43
2023-02-17T15:55:18.747Z,1.50
2023-02-17T15:57:48.663Z,1.70
2023-02-17T16:00:21.916Z,1.70
2023-02-17T16:02:50.206Z,4.87
2023-02-17T16:05:20.378Z,1.90
2023-02-17T16:07:49.637Z,2.70
2023-02-17T16:10:18.886Z,5.07
2023-02-17T16:12:47.113Z,2.73
2023-02-17T16:15:16.499Z,1.77
2023-02-17T16:17:44.407Z,1.90
2023-02-17T16:20:16.748Z,2.20
2023-02-17T16:22:45.687Z,3.30
2023-02-17T16:25:16.657Z,2.57
2023-02-17T16:27:45.694Z,2.50
2023-02-17T16:30:18.197Z,4.53
2023-02-17T16:32:46.526Z,2.27
2023-02-17T16:35:15.902Z,1.90
2023-02-17T16:37:46.840Z,1.97
2023-02-17T16:40:17.763Z,2.33
2023-02-17T16:42:45.699Z,2.00
2023-02-17T16:45:17.786Z,1.90
2023-02-17T16:47:47.617Z,1.83
2023-02-17T16:50:19.325Z,2.50
2023-02-17T16:52:47.173Z,1.87
2023-02-17T16:55:20.372Z,1.60
2023-02-17T16:57:48.599Z,1.60
2023-02-17T17:00:18.889Z,2.00
2023-02-17T17:02:46.978Z,2.17
2023-02-17T17:05:14.828Z,1.77
2023-02-17T17:07:42.988Z,1.70
2023-02-17T17:10:17.033Z,1.70
2023-02-17T17:12:47.446Z,1.70
2023-02-17T17:15:16.345Z,3.07
2023-02-17T17:17:46.206Z,2.00
2023-02-17T17:20:16.420Z,2.10
2023-02-17T17:22:46.643Z,2.00
2023-02-17T17:25:14.934Z,2.40
2023-02-17T17:27:42.932Z,1.97
2023-02-17T17:30:17.320Z,2.63
2023-02-17T17:32:45.172Z,2.60
2023-02-17T17:35:12.982Z,2.40
2023-02-17T17:37:40.807Z,3.20
2023-02-17T17:40:11.771Z,2.20
2023-02-17T17:42:39.533Z,2.60
2023-02-17T17:45:07.532Z,2.40
2023-02-17T17:47:36.648Z,2.50
2023-02-17T17:50:04.512Z,2.30
2023-02-17T17:52:32.533Z,3.43
2023-02-17T17:55:00.310Z,3.40
2023-02-17T17:57:28.142Z,3.07
2023-02-17T17:59:55.889Z,2.70
2023-02-17T18:02:23.706Z,2.60
2023-02-17T18:04:52.852Z,3.93
2023-02-17T18:07:20.670Z,3.30
2023-02-17T18:09:48.501Z,2.97
2023-02-17T18:12:17.579Z,2.50
2023-02-17T18:14:46.040Z,5.53
2023-02-17T18:17:15.729Z,4.60
2023-02-17T18:19:43.488Z,2.80
2023-02-17T18:22:12.615Z,3.90
2023-02-17T18:24:41.267Z,4.13
2023-02-17T18:27:09.087Z,5.60
2023-02-17T18:29:36.826Z,3.47
2023-02-17T18:32:04.747Z,3.43
2023-02-17T18:34:32.666Z,3.57
2023-02-17T18:37:00.462Z,5.57
2023-02-17T18:39:29.630Z,3.70
2023-02-17T18:41:57.418Z,4.20
2023-02-17T18:44:25.183Z,5.37
2023-02-17T18:46:52.959Z,4.40
2023-02-17T18:49:20.806Z,5.20
2023-02-17T18:51:48.651Z,6.83
2023-02-17T18:54:16.474Z,7.27
2023-02-17T18:56:45.594Z,5.83
2023-02-17T18:59:13.453Z,6.93
2023-02-17T19:01:43.245Z,7.30
2023-02-17T19:04:11.993Z,6.07
2023-02-17T19:06:40.178Z,7.77
2023-02-17T19:09:08.012Z,6.80
2023-02-17T19:11:35.999Z,9.27
2023-02-17T19:14:05.137Z,6.33
2023-02-17T19:16:33.367Z,6.90
2023-02-17T19:19:01.914Z,6.37
2023-02-17T19:21:29.689Z,8.63
2023-02-17T19:23:57.654Z,7.80
2023-02-17T19:26:25.461Z,12.73
2023-02-17T19:28:53.223Z,7.57
2023-02-17T19:31:22.429Z,11.13
2023-02-17T19:33:50.560Z,10.93
2023-02-17T19:36:20.717Z,8.30
2023-02-17T19:38:49.615Z,9.50
2023-02-17T19:41:17.961Z,9.43
2023-02-17T19:43:46.394Z,8.53
2023-02-17T19:46:14.926Z,8.83
2023-02-17T19:48:44.116Z,12.17
2023-02-17T19:51:13.746Z,9.87
2023-02-17T19:53:43.034Z,9.07
2023-02-17T19:56:12.588Z,7.73
2023-02-17T19:58:41.031Z,9.27
2023-02-17T20:01:10.494Z,10.07
2023-02-17T20:03:38.464Z,9.03
2023-02-17T20:06:09.856Z,10.30
2023-02-17T20:08:39.651Z,9.77
2023-02-17T20:11:08.499Z,8.97
2023-02-17T20:13:45.342Z,11.57
2023-02-17T20:16:14.903Z,8.50
2023-02-17T20:18:45.385Z,9.23
2023-02-17T20:21:16.953Z,8.60
2023-02-17T20:23:44.833Z,9.37
2023-02-17T20:26:14.797Z,8.83
2023-02-17T20:28:42.626Z,9.13
2023-02-17T20:31:10.932Z,9.63
2023-02-17T20:33:39.286Z,19.67
2023-02-17T20:36:08.104Z,7.43
2023-02-17T20:38:38.274Z,10.67
2023-02-17T20:41:06.763Z,6.43
2023-02-17T20:43:34.789Z,8.17
2023-02-17T20:46:02.815Z,10.83
2023-02-17T20:48:30.667Z,10.07
2023-02-17T20:50:59.451Z,7.30
2023-02-17T20:53:27.465Z,8.70
2023-02-17T20:55:57.020Z,10.70
2023-02-17T20:58:24.767Z,7.40
2023-02-17T21:00:52.594Z,9.20
2023-02-17T21:03:20.402Z,9.07
2023-02-17T21:05:48.147Z,7.10
2023-02-17T21:08:15.862Z,9.00
2023-02-17T21:10:43.619Z,6.27
2023-02-17T21:13:12.810Z,8.03
2023-02-17T21:15:40.764Z,11.07
2023-02-17T21:18:08.940Z,6.47
2023-02-17T21:20:36.748Z,6.17
2023-02-17T21:23:04.502Z,6.83
2023-02-17T21:25:32.398Z,8.80
2023-02-17T21:28:00.121Z,6.70
2023-02-17T21:30:29.270Z,7.27
2023-02-17T21:32:56.997Z,8.83
2023-02-17T21:35:24.759Z,7.23
2023-02-17T21:37:52.526Z,5.37
2023-02-17T21:40:20.606Z,5.97
2023-02-17T21:43:06.170Z,6.03
2023-02-17T21:45:39.610Z,5.57
2023-02-17T21:48:07.754Z,6.77
2023-02-17T21:50:35.504Z,5.90
2023-02-17T21:53:03.268Z,5.37
2023-02-17T21:55:31.048Z,5.07
2023-02-17T21:57:58.908Z,5.60
2023-02-17T22:00:26.760Z,6.00
2023-02-17T22:02:55.923Z,6.23
2023-02-17T22:05:23.710Z,7.10
2023-02-17T22:07:51.904Z,6.23
2023-02-17T22:10:19.946Z,5.67
2023-02-17T22:12:47.762Z,5.90
2023-02-17T22:15:16.248Z,6.00
2023-02-17T22:17:44.054Z,4.97
2023-02-17T22:20:15.169Z,5.10
2023-02-17T22:22:42.972Z,4.67
2023-02-17T22:25:10.749Z,5.60
2023-02-17T22:27:38.523Z,4.83
2023-02-17T22:30:08.524Z,6.70
2023-02-17T22:32:36.715Z,5.57
2023-02-17T22:35:04.710Z,5.70
2023-02-17T22:37:33.835Z,5.77
2023-02-17T22:40:01.615Z,6.60
2023-02-17T22:42:29.564Z,6.60
2023-02-17T22:44:57.302Z,6.90
2023-02-17T22:47:25.046Z,6.70
2023-02-17T22:49:52.811Z,7.13
2023-02-17T22:52:20.599Z,8.23
2023-02-17T22:54:49.819Z,6.97
2023-02-17T22:57:17.583Z,5.57
2023-02-17T22:59:45.356Z,6.07
2023-02-17T23:02:13.230Z,5.50
2023-02-17T23:04:43.253Z,5.80
2023-02-17T23:07:11.052Z,4.83
2023-02-17T23:09:38.751Z,6.80
2023-02-17T23:12:08.629Z,5.73
2023-02-17T23:14:38.424Z,5.97
2023-02-17T23:17:09.518Z,4.77
2023-02-17T23:19:38.106Z,5.80
2023-02-17T23:22:08.215Z,5.73
2023-02-17T23:24:36.029Z,6.97
2023-02-17T23:27:04.029Z,7.23
2023-02-17T23:29:33.431Z,9.13
2023-02-17T23:32:01.911Z,7.27
2023-02-17T23:34:30.023Z,8.90
2023-02-17T23:36:58.271Z,6.30
2023-02-17T23:39:26.646Z,7.50
2023-02-17T23:41:54.486Z,5.63
2023-02-17T23:44:22.380Z,6.37
2023-02-17T23:46:51.855Z,5.93
2023-02-17T23:49:19.888Z,5.73
2023-02-17T23:51:48.116Z,5.33
2023-02-17T23:54:16.466Z,4.77
2023-02-17T23:56:44.831Z,5.67
2023-02-17T23:59:12.896Z,6.07
